Time;durP1;ratioP1;P1;durP2;ratioP2;P2;SDS_P1;SDS_P2;PMS_P1;PMS_P2;Temp;Humidity;BMP_temperature;BMP_pressure;BME280_temperature;BME280_humidity;BME280_pressure;Samples;Min_cycle;Max_cycle;Signal;HPM_P1;HPM_P2
2022/05/13 00:02:01;;;;;;;17.77;7.37;;;;;;;18.13;67.30;99772.69;5135759;27;20225;-63
2022/05/13 00:04:28;;;;;;;12.03;6.40;;;;;;;18.02;68.27;99757.41;5135028;27;20247;-63
2022/05/13 00:06:55;;;;;;;16.90;6.17;;;;;;;18.08;67.79;99761.81;5135014;27;20194;-63
2022/05/13 00:09:56;;;;;;;14.40;6.83;;;;;;;18.09;68.03;99763.47;5135306;27;20190;-63
2022/05/13 00:12:11;;;;;;;13.83;6.07;;;;;;;18.10;67.70;99765.09;5134520;27;20226;-63
2022/05/13 00:14:38;;;;;;;10.17;5.50;;;;;;;18.12;67.68;99768.34;5134485;27;20217;-63
2022/05/13 00:17:06;;;;;;;9.30;5.33;;;;;;;18.11;67.88;99767.56;5135733;27;20250;-63
2022/05/13 00:19:33;;;;;;;6.70;5.90;;;;;;;18.10;68.32;99765.09;5134765;27;20196;-63
2022/05/13 00:22:00;;;;;;;16.07;5.77;;;;;;;18.12;68.70;99760.28;5133007;27;20670;-64
2022/05/13 00:24:27;;;;;;;8.33;5.63;;;;;;;18.13;67.96;99759.25;5134556;27;20578;-64
2022/05/13 00:26:56;;;;;;;6.73;5.30;;;;;;;18.11;68.18;99761.34;5135322;27;20197;-63
2022/05/13 00:29:24;;;;;;;10.40;5.10;;;;;;;18.09;67.87;99755.41;5134241;27;20246;-63
2022/05/13 00:31:51;;;;;;;8.47;5.77;;;;;;;17.93;68.20;99750.78;5134222;27;20194;-63
2022/05/13 00:34:18;;;;;;;6.10;5.50;;;;;;;17.91;67.30;99751.00;5135315;27;20232;-63
2022/05/13 00:36:47;;;;;;;6.10;5.50;;;;;;;17.85;66.89;99761.88;5134317;27;20185;-63
2022/05/13 00:39:14;;;;;;;13.20;5.80;;;;;;;17.87;66.99;99765.13;5134083;27;20197;-63
2022/05/13 00:41:41;;;;;;;13.47;6.07;;;;;;;17.84;66.95;99761.06;5134377;27;20309;-65
2022/05/13 00:44:08;;;;;;;9.50;5.80;;;;;;;17.78;66.96;99764.69;5134264;27;20201;-64
2022/05/13 00:46:37;;;;;;;10.43;5.60;;;;;;;17.84;66.47;99765.63;5133915;27;20246;-65
2022/05/13 00:49:07;;;;;;;10.73;5.67;;;;;;;17.88;66.18;99767.59;5134335;27;20293;-64
2022/05/13 00:51:37;;;;;;;7.87;5.20;;;;;;;17.92;65.72;99766.06;5133889;27;20194;-64
2022/05/13 00:54:06;;;;;;;5.87;5.47;;;;;;;17.88;65.51;99764.09;5134128;27;20225;-63
2022/05/13 00:56:34;;;;;;;6.03;5.40;;;;;;;17.90;64.72;99764.66;5133712;27;20190;-63
2022/05/13 00:59:02;;;;;;;5.70;5.10;;;;;;;17.93;64.88;99764.22;5134288;27;20219;-63
2022/05/13 01:01:29;;;;;;;5.83;4.93;;;;;;;17.97;64.45;99770.75;5133715;27;20194;-63
2022/05/13 01:04:02;;;;;;;5.60;4.93;;;;;;;17.99;64.52;99769.44;5133599;27;20663;-63
2022/05/13 01:06:29;;;;;;;7.20;5.30;;;;;;;17.96;64.83;99769.91;5134764;27;20186;-62
2022/05/13 01:08:57;;;;;;;5.23;4.83;;;;;;;17.70;64.91;99765.06;5134053;27;20246;-63
2022/05/13 01:11:28;;;;;;;6.30;5.70;;;;;;;17.69;65.49;99762.59;5133787;27;20247;-63
2022/05/13 01:14:00;;;;;;;5.63;5.13;;;;;;;17.59;65.08;99770.41;5134558;27;20213;-63
2022/05/13 01:16:28;;;;;;;7.03;5.30;;;;;;;17.51;65.79;99770.78;5133513;27;20273;-63
2022/05/13 01:18:54;;;;;;;7.17;5.97;;;;;;;17.40;66.02;99766.19;5133374;27;20626;-62
2022/05/13 01:21:29;;;;;;;7.00;6.30;;;;;;;17.31;66.82;99767.59;5133710;27;20204;-62
2022/05/13 01:23:58;;;;;;;6.10;5.67;;;;;;;17.41;66.75;99765.16;5133968;27;20250;-62
2022/05/13 01:26:26;;;;;;;7.20;5.80;;;;;;;17.49;66.84;99762.13;5133218;27;20614;-62
2022/05/13 01:28:55;;;;;;;6.30;5.70;;;;;;;17.52;66.80;99761.69;5134468;27;20193;-63
2022/05/13 01:31:25;;;;;;;6.37;5.77;;;;;;;17.51;66.56;99762.75;5133194;27;20251;-63
2022/05/13 01:33:53;;;;;;;6.20;5.80;;;;;;;17.55;66.25;99762.03;5132456;27;20256;-63
2022/05/13 01:36:21;;;;;;;6.63;5.77;;;;;;;17.60;65.77;99769.38;5133435;27;20205;-63
2022/05/13 01:38:49;;;;;;;5.63;5.23;;;;;;;17.53;66.43;99763.31;5133946;27;20647;-63
2022/05/13 01:41:18;;;;;;;11.23;5.67;;;;;;;17.57;66.14;99759.94;5133371;27;20221;-63
2022/05/13 01:43:46;;;;;;;6.20;5.80;;;;;;;17.57;66.15;99768.00;5132995;27;20654;-62
2022/05/13 01:46:14;;;;;;;9.70;6.33;;;;;;;17.59;66.26;99773.09;5132924;27;20223;-63
2022/05/13 01:48:41;;;;;;;16.33;6.93;;;;;;;17.55;66.73;99766.56;5132974;27;20278;-63
2022/05/13 01:51:08;;;;;;;7.60;5.93;;;;;;;17.50;66.85;99763.75;5133254;27;20196;-63
2022/05/13 01:53:35;;;;;;;7.50;5.60;;;;;;;17.44;67.43;99764.72;5133464;27;20746;-63
2022/05/13 01:56:03;;;;;;;7.47;6.50;;;;;;;17.40;67.68;99758.16;5134025;27;20190;-64
2022/05/13 01:58:31;;;;;;;7.50;5.60;;;;;;;17.40;67.50;99758.97;5133034;27;20285;-62
2022/05/13 02:00:59;;;;;;;6.70;5.97;;;;;;;17.34;68.14;99753.69;5133143;27;20200;-62
2022/05/13 02:03:46;;;;;;;7.03;5.57;;;;;;;17.25;68.32;99750.56;5133125;27;20576;-63
2022/05/13 02:06:15;;;;;;;6.57;5.90;;;;;;;17.24;67.84;99754.28;5133780;28;20215;-63
2022/05/13 02:08:43;;;;;;;5.90;5.50;;;;;;;17.01;68.26;99718.53;5132861;27;20224;-63
2022/05/13 02:11:12;;;;;;;10.43;5.70;;;;;;;17.21;68.01;99753.91;5132706;27;20239;-63
2022/05/13 02:13:41;;;;;;;7.93;5.83;;;;;;;17.19;68.38;99758.72;5132746;27;20224;-63
2022/05/13 02:16:09;;;;;;;6.90;6.33;;;;;;;17.14;68.24;99753.19;5132983;27;20201;-63
2022/05/13 02:18:36;;;;;;;7.37;5.77;;;;;;;17.10;68.81;99768.13;5132639;27;20238;-63
2022/05/13 02:21:03;;;;;;;13.90;5.93;;;;;;;17.07;69.20;99755.19;5132596;27;20663;-64
2022/05/13 02:23:30;;;;;;;6.60;5.33;;;;;;;17.02;69.24;99760.44;5132888;27;20336;-64
2022/05/13 02:26:00;;;;;;;5.90;5.60;;;;;;;16.89;68.94;99766.81;5132586;27;20663;-64
2022/05/13 02:28:26;;;;;;;7.17;6.50;;;;;;;16.85;69.47;99767.50;5132487;27;20190;-64
2022/05/13 02:30:54;;;;;;;6.77;6.20;;;;;;;16.74;70.14;99752.22;5132501;27;20190;-64
2022/05/13 02:33:21;;;;;;;10.70;6.13;;;;;;;16.72;70.47;99757.81;5132789;27;20192;-64
2022/05/13 02:35:48;;;;;;;9.03;6.30;;;;;;;16.72;70.75;99765.03;5132445;27;20261;-65
2022/05/13 02:38:17;;;;;;;7.10;6.40;;;;;;;16.72;70.26;99759.66;5132777;27;20186;-65
2022/05/13 02:43:29;;;;;;;9.57;6.37;;;;;;;16.66;70.17;99760.59;5132751;28;20186;-65
2022/05/13 02:45:57;;;;;;;12.00;6.40;;;;;;;16.55;70.18;99754.13;5136131;27;20198;-64
2022/05/13 02:48:24;;;;;;;8.77;6.30;;;;;;;16.44;71.39;99762.13;5136524;27;20279;-64
2022/05/13 02:50:51;;;;;;;11.70;6.67;;;;;;;16.47;71.27;99761.66;5137129;27;20604;-64
2022/05/13 02:53:18;;;;;;;8.87;6.20;;;;;;;16.50;71.42;99748.63;5137095;27;20606;-64
2022/05/13 02:55:45;;;;;;;8.40;7.43;;;;;;;16.45;71.02;99758.41;5136044;27;20785;-64
2022/05/13 02:58:11;;;;;;;14.23;7.73;;;;;;;16.27;71.42;99758.41;5136082;27;20727;-64
2022/05/13 03:00:39;;;;;;;11.33;7.27;;;;;;;16.21;72.34;99759.31;5135990;27;20215;-65
2022/05/13 03:03:07;;;;;;;10.63;7.07;;;;;;;16.32;72.15;99759.34;5136019;27;20246;-64
2022/05/13 03:05:35;;;;;;;11.43;6.90;;;;;;;16.38;71.81;99768.38;5135949;27;20198;-64
2022/05/13 03:08:01;;;;;;;12.00;7.27;;;;;;;16.44;71.67;99772.84;5135964;27;20666;-64
2022/05/13 03:10:29;;;;;;;15.33;7.67;;;;;;;16.48;72.06;99768.66;5135857;27;20215;-64
2022/05/13 03:12:56;;;;;;;15.73;7.23;;;;;;;16.48;71.91;99779.38;5135779;27;20280;-63
2022/05/13 03:15:25;;;;;;;9.83;7.07;;;;;;;16.48;72.05;99780.22;5135648;27;20279;-63
2022/05/13 03:17:52;;;;;;;14.83;6.67;;;;;;;16.52;71.98;99780.56;5136052;27;20198;-63
2022/05/13 03:20:22;;;;;;;14.57;7.53;;;;;;;16.52;72.03;99788.63;5135676;27;20716;-63
2022/05/13 03:22:51;;;;;;;10.70;6.73;;;;;;;16.49;71.26;99787.22;5135587;27;20733;-63
2022/05/13 03:25:18;;;;;;;14.20;7.67;;;;;;;16.50;71.89;99782.69;5136704;27;20283;-63
2022/05/13 03:27:45;;;;;;;12.23;7.07;;;;;;;16.54;72.13;99790.03;5135571;27;20701;-63
2022/05/13 03:30:15;;;;;;;15.03;7.00;;;;;;;16.21;72.61;99733.31;5136529;27;20198;-62
2022/05/13 03:32:42;;;;;;;21.63;8.47;;;;;;;16.63;72.37;99790.53;5136076;27;20241;-63
2022/05/13 03:35:11;;;;;;;17.90;7.23;;;;;;;16.67;72.00;99795.22;5135613;27;20270;-63
2022/05/13 03:37:39;;;;;;;17.50;6.50;;;;;;;16.72;72.11;99787.31;5135643;27;20251;-62
2022/05/13 03:40:07;;;;;;;15.00;7.03;;;;;;;16.77;71.70;99790.13;5135297;27;20238;-63
2022/05/13 03:42:33;;;;;;;7.87;6.27;;;;;;;16.81;71.10;99795.84;5135540;27;20198;-62
2022/05/13 03:45:00;;;;;;;10.07;6.47;;;;;;;16.88;71.24;99801.94;5135170;27;20194;-62
2022/05/13 03:47:27;;;;;;;10.63;6.97;;;;;;;16.96;70.93;99804.28;5135077;27;20654;-62
2022/05/13 03:49:53;;;;;;;6.83;6.23;;;;;;;17.05;71.23;99801.06;5135024;27;20659;-62
2022/05/13 03:52:20;;;;;;;11.00;6.50;;;;;;;17.14;70.91;99801.53;5135879;27;20198;-61
2022/05/13 03:54:48;;;;;;;8.73;6.50;;;;;;;17.42;70.43;99799.84;5135633;27;20271;-61
2022/05/13 03:57:15;;;;;;;10.83;7.17;;;;;;;18.25;68.71;99811.13;5134469;27;20201;-62
2022/05/13 03:59:42;;;;;;;17.17;7.50;;;;;;;19.17;65.23;99819.66;5134763;27;20198;-63
2022/05/13 04:02:09;;;;;;;22.63;6.67;;;;;;;19.96;62.99;99826.59;5135059;27;20186;-64
2022/05/13 04:10:08;;;;;;;9.87;6.23;;;;;;;23.23;50.66;99840.59;5095766;27;20684;-67
2022/05/13 04:18:04;;;;;;;9.23;5.60;;;;;;;25.56;40.01;99849.34;5134985;27;20176;-67
2022/05/13 04:20:32;;;;;;;16.07;5.17;;;;;;;25.91;38.42;99850.94;5134603;27;20185;-67
2022/05/13 04:22:59;;;;;;;11.77;5.03;;;;;;;26.25;38.77;99851.72;5134565;27;20220;-67
2022/05/13 04:25:27;;;;;;;15.77;5.23;;;;;;;26.66;36.67;99850.16;5134428;27;20754;-67
2022/05/13 04:27:53;;;;;;;7.33;5.67;;;;;;;27.13;35.76;99852.78;5134709;27;20190;-67
2022/05/13 04:30:20;;;;;;;11.50;5.00;;;;;;;27.43;36.89;99847.69;5132735;27;20259;-68
2022/05/13 04:32:47;;;;;;;8.20;4.73;;;;;;;27.82;34.98;99844.59;5134538;27;20243;-70
2022/05/13 04:35:14;;;;;;;10.00;4.93;;;;;;;27.93;34.43;99856.97;5133859;27;20702;-70
2022/05/13 04:37:41;;;;;;;24.20;6.23;;;;;;;28.32;33.50;99852.69;5132722;27;20633;-70
2022/05/13 04:40:08;;;;;;;10.73;5.40;;;;;;;28.85;32.92;99858.44;5133407;27;20194;-69
2022/05/13 04:42:50;;;;;;;15.07;5.83;;;;;;;28.93;33.52;99854.97;5133098;27;20608;-72
2022/05/13 04:45:23;;;;;;;16.57;5.43;;;;;;;29.09;32.91;99854.38;5133312;27;20198;-64
2022/05/13 04:50:36;;;;;;;12.90;5.87;;;;;;;29.66;31.36;99858.22;5133768;27;20674;-63
2022/05/13 04:53:04;;;;;;;13.53;5.87;;;;;;;29.89;31.11;99862.56;5134756;27;20258;-64
2022/05/13 04:55:30;;;;;;;13.10;4.77;;;;;;;30.12;30.41;99864.13;5134063;27;20270;-63
2022/05/13 04:57:58;;;;;;;13.23;4.63;;;;;;;30.30;30.22;99868.63;5133839;27;20262;-63
2022/05/13 05:00:25;;;;;;;6.50;4.73;;;;;;;30.44;30.32;99857.50;5133704;27;20197;-64
2022/05/13 05:02:52;;;;;;;11.90;4.23;;;;;;;30.32;30.20;99866.34;5133447;27;20193;-63
2022/05/13 05:05:19;;;;;;;12.13;5.03;;;;;;;30.19;30.33;99863.69;5133917;27;20190;-63
2022/05/13 05:07:46;;;;;;;11.07;5.47;;;;;;;30.57;30.19;99857.41;5133080;27;20190;-63
2022/05/13 05:10:13;;;;;;;13.20;5.70;;;;;;;30.69;29.93;99860.38;5133770;27;20186;-63
2022/05/13 05:12:40;;;;;;;22.37;5.60;;;;;;;30.69;29.89;99868.59;5134054;27;20190;-63
2022/05/13 05:15:09;;;;;;;18.30;5.37;;;;;;;30.98;29.70;99874.31;5133382;27;20648;-64
2022/05/13 05:17:36;;;;;;;12.27;4.40;;;;;;;30.68;30.13;99869.69;5133710;27;20189;-62
2022/05/13 05:20:05;;;;;;;12.70;5.03;;;;;;;30.92;29.48;99875.59;5133675;27;20198;-62
2022/05/13 05:22:32;;;;;;;17.33;5.20;;;;;;;31.20;29.38;99876.13;5133293;27;20667;-62
2022/05/13 05:24:58;;;;;;;8.40;4.33;;;;;;;31.16;29.23;99866.91;5133326;27;20198;-62
2022/05/13 05:27:25;;;;;;;12.33;4.33;;;;;;;31.13;28.91;99870.28;5133206;27;20622;-62
2022/05/13 05:29:52;;;;;;;21.10;6.27;;;;;;;31.81;28.64;99873.88;5133559;27;20196;-61
2022/05/13 05:32:20;;;;;;;12.03;4.97;;;;;;;31.69;28.66;99873.69;5127587;27;20190;-62
2022/05/13 05:34:47;;;;;;;7.30;4.20;;;;;;;31.51;28.62;99872.09;5124029;27;20214;-63
2022/05/13 05:37:13;;;;;;;5.80;4.17;;;;;;;31.75;28.88;99875.16;5119811;27;20186;-62
2022/05/13 05:39:40;;;;;;;7.73;4.53;;;;;;;31.68;29.07;99869.34;5112464;28;20198;-62
2022/05/13 05:42:09;;;;;;;8.03;3.80;;;;;;;31.76;28.34;99871.28;5131394;27;20288;-62
2022/05/13 05:44:35;;;;;;;12.53;4.57;;;;;;;31.74;28.68;99872.72;5132979;27;20281;-69
2022/05/13 05:47:02;;;;;;;9.03;3.60;;;;;;;31.59;28.82;99868.53;5133101;27;20194;-69
2022/05/13 05:49:31;;;;;;;9.13;4.37;;;;;;;31.10;29.06;99866.25;5132623;27;20224;-71
2022/05/13 05:51:58;;;;;;;10.50;3.43;;;;;;;31.49;27.61;99868.88;5153529;27;20672;-66
2022/05/13 05:57:15;;;;;;;4.03;3.63;;;;;;;31.27;27.97;99860.00;5153923;27;20181;-67
2022/05/13 05:59:42;;;;;;;7.40;4.40;;;;;;;31.18;28.60;99861.88;5154693;27;20181;-65
2022/05/13 06:02:09;;;;;;;6.23;3.60;;;;;;;31.14;29.23;99871.91;5153707;27;20241;-68
2022/05/13 06:04:38;;;;;;;5.77;3.37;;;;;;;30.68;30.08;99866.13;5153441;27;20658;-66
2022/05/13 06:07:06;;;;;;;5.83;3.63;;;;;;;30.77;29.83;99865.06;5140255;27;20245;-66
2022/05/13 06:09:33;;;;;;;5.87;3.97;;;;;;;30.63;29.65;99864.38;5132895;27;20262;-65
2022/05/13 06:12:00;;;;;;;4.57;3.50;;;;;;;30.49;30.36;99852.69;5132740;27;20239;-65
2022/05/13 06:14:27;;;;;;;11.67;3.70;;;;;;;30.73;30.03;99861.34;5132892;27;20222;-66
2022/05/13 06:16:54;;;;;;;8.53;3.80;;;;;;;30.95;29.90;99861.22;5132873;27;20308;-66
2022/05/13 06:19:21;;;;;;;5.77;3.60;;;;;;;31.11;29.97;99862.38;5133439;27;20548;-65
2022/05/13 06:21:49;;;;;;;9.20;3.43;;;;;;;31.30;30.36;99857.41;5136850;27;20243;-66
2022/05/13 06:24:18;;;;;;;10.00;4.07;;;;;;;31.28;31.56;99854.16;5136640;27;20197;-66
2022/05/13 06:26:45;;;;;;;12.57;4.60;;;;;;;31.31;31.26;99863.72;5120298;27;20686;-66
2022/05/13 06:29:12;;;;;;;8.67;3.73;;;;;;;31.44;30.16;99863.53;5120656;27;20189;-65
2022/05/13 06:31:39;;;;;;;12.37;3.90;;;;;;;31.51;31.04;99855.63;5116311;28;20195;-66
2022/05/13 06:34:05;;;;;;;13.17;4.20;;;;;;;31.37;30.29;99859.66;5116344;28;20644;-65
2022/05/13 06:36:33;;;;;;;7.27;3.67;;;;;;;31.65;30.58;99852.69;5116110;28;20282;-65
2022/05/13 06:39:02;;;;;;;14.27;4.63;;;;;;;31.80;30.08;99853.03;5116436;28;20191;-65
2022/05/13 06:41:29;;;;;;;8.73;3.70;;;;;;;32.00;29.78;99841.31;5132073;27;20194;-67
2022/05/13 06:43:56;;;;;;;10.70;4.30;;;;;;;32.01;28.67;99840.19;5136150;27;20187;-67
2022/05/13 06:46:23;;;;;;;7.20;4.30;;;;;;;31.53;30.22;99839.63;5136705;27;20194;-66
2022/05/13 06:48:50;;;;;;;8.50;3.80;;;;;;;31.16;30.49;99845.75;5136473;27;20222;-65
2022/05/13 06:51:18;;;;;;;10.33;4.23;;;;;;;31.09;30.94;99845.44;5155200;27;20272;-65
2022/05/13 06:53:45;;;;;;;12.07;4.57;;;;;;;30.98;30.34;99832.31;5157246;27;20194;-65
2022/05/13 06:56:13;;;;;;;15.63;3.63;;;;;;;30.67;32.26;99839.84;5157199;27;20224;-67
2022/05/13 06:58:40;;;;;;;5.27;3.63;;;;;;;30.50;31.98;99829.63;5157034;27;20607;-65
2022/05/13 07:01:07;;;;;;;7.80;4.07;;;;;;;30.74;30.63;99830.03;5136170;27;20250;-66
2022/05/13 07:03:34;;;;;;;11.43;4.07;;;;;;;30.42;30.89;99827.66;5135855;27;20668;-66
2022/05/13 07:06:00;;;;;;;7.13;4.00;;;;;;;30.42;30.79;99830.41;5135986;27;20198;-66
2022/05/13 07:08:27;;;;;;;5.37;3.67;;;;;;;30.35;31.31;99832.81;5135833;27;20571;-66
2022/05/13 07:10:54;;;;;;;6.60;3.57;;;;;;;30.69;31.33;99827.44;5136129;27;20186;-65
2022/05/13 07:13:22;;;;;;;8.97;3.60;;;;;;;30.42;31.51;99822.19;5135952;27;20198;-65
2022/05/13 07:15:49;;;;;;;5.77;3.57;;;;;;;30.76;30.64;99821.50;5136523;27;20221;-66
2022/05/13 07:18:15;;;;;;;9.73;3.90;;;;;;;30.78;31.11;99828.28;5135913;27;20217;-65
2022/05/13 07:20:42;;;;;;;7.10;4.17;;;;;;;30.99;30.76;99818.28;5135933;27;20194;-66
2022/05/13 07:23:09;;;;;;;6.93;3.40;;;;;;;31.23;30.43;99829.63;5135557;27;20682;-66
2022/05/13 07:25:36;;;;;;;7.40;4.43;;;;;;;31.45;29.46;99826.72;5135639;27;20663;-66
2022/05/13 07:28:03;;;;;;;10.00;3.67;;;;;;;31.48;29.24;99823.31;5136021;27;20190;-66
2022/05/13 07:30:31;;;;;;;5.67;3.70;;;;;;;31.66;29.75;99822.16;5135231;27;20239;-65
2022/05/13 07:32:58;;;;;;;6.30;3.20;;;;;;;31.62;29.90;99818.44;5134893;27;20190;-64
2022/05/13 07:35:25;;;;;;;7.23;3.47;;;;;;;31.27;30.22;99822.34;5115787;27;20210;-66
2022/05/13 07:37:52;;;;;;;3.97;3.60;;;;;;;30.39;30.25;99817.34;5114922;27;20276;-66
2022/05/13 07:43:04;;;;;;;7.93;3.70;;;;;;;30.63;30.51;99812.25;5135748;27;20243;-66
2022/05/13 07:45:32;;;;;;;4.27;3.87;;;;;;;30.22;30.92;99800.84;5135428;27;20225;-64
2022/05/13 07:48:01;;;;;;;3.70;3.40;;;;;;;30.77;30.46;99799.22;5135098;27;20278;-65
2022/05/13 07:50:28;;;;;;;4.07;3.43;;;;;;;30.67;30.65;99801.44;5135282;27;20247;-66
2022/05/13 07:52:55;;;;;;;8.60;3.70;;;;;;;31.14;29.43;99809.56;5135044;27;20186;-67
2022/05/13 07:55:22;;;;;;;7.10;4.10;;;;;;;31.14;28.33;99790.34;5134920;27;20218;-64
2022/05/13 07:57:50;;;;;;;9.93;3.93;;;;;;;31.09;29.12;99804.25;5134952;27;20720;-64
2022/05/13 08:00:29;;;;;;;4.00;3.70;;;;;;;30.62;28.87;99799.63;5134852;27;20190;-63
2022/05/13 08:03:00;;;;;;;8.27;3.80;;;;;;;30.30;29.16;99791.84;5134823;27;20678;-64
2022/05/13 08:05:30;;;;;;;6.63;4.00;;;;;;;30.71;28.89;99791.47;5134731;27;20648;-64
2022/05/13 08:08:02;;;;;;;7.57;3.90;;;;;;;30.91;29.23;99796.34;5135879;27;20186;-64
2022/05/13 08:10:28;;;;;;;8.60;3.90;;;;;;;30.10;30.70;99786.91;5134696;27;20190;-64
2022/05/13 08:12:55;;;;;;;8.87;4.07;;;;;;;30.33;29.71;99791.19;5135097;27;20194;-64
2022/05/13 08:15:22;;;;;;;8.53;4.23;;;;;;;29.93;30.50;99786.81;5134442;27;20235;-66
2022/05/13 08:17:49;;;;;;;8.13;4.40;;;;;;;29.86;31.05;99778.25;5133422;27;20254;-64
2022/05/13 08:20:17;;;;;;;18.10;4.90;;;;;;;30.25;30.39;99783.75;5134704;27;20238;-63
2022/05/13 08:22:45;;;;;;;4.83;3.90;;;;;;;30.53;29.68;99784.31;5134791;27;20197;-64
2022/05/13 08:25:12;;;;;;;7.60;4.50;;;;;;;30.81;29.85;99781.00;5133268;27;20553;-64
2022/05/13 08:27:38;;;;;;;11.97;4.80;;;;;;;30.97;29.46;99776.66;5134354;27;20215;-64
2022/05/13 08:30:07;;;;;;;8.37;3.90;;;;;;;31.25;29.71;99775.22;5134591;27;20251;-63
2022/05/13 08:32:34;;;;;;;8.53;4.30;;;;;;;31.35;28.60;99782.31;5134706;27;20206;-63
2022/05/13 08:35:00;;;;;;;8.43;4.10;;;;;;;31.56;28.60;99775.78;5118029;27;20190;-63
2022/05/13 08:37:29;;;;;;;9.67;4.73;;;;;;;31.72;28.53;99771.38;5125044;27;20702;-64
2022/05/13 08:39:59;;;;;;;9.67;4.50;;;;;;;31.89;27.94;99779.59;5134353;27;20217;-64
2022/05/13 08:42:35;;;;;;;5.03;4.27;;;;;;;31.57;28.23;99771.94;5134350;27;20305;-65
2022/05/13 08:45:03;;;;;;;6.57;4.40;;;;;;;31.82;28.00;99768.31;5134562;27;20193;-65
2022/05/13 08:47:35;;;;;;;6.30;4.60;;;;;;;31.79;28.36;99766.22;5133463;27;20703;-65
2022/05/13 08:50:08;;;;;;;6.17;4.40;;;;;;;32.06;28.09;99754.78;5141418;27;20199;-65
2022/05/13 08:55:31;;;;;;;11.47;4.17;;;;;;;31.89;27.94;99751.31;5133839;27;20283;-66
2022/05/13 08:58:00;;;;;;;4.70;4.17;;;;;;;32.12;27.20;99750.72;5134360;27;20273;-64
2022/05/13 09:00:33;;;;;;;5.23;4.27;;;;;;;32.25;27.17;99755.16;5134578;27;20182;-63
2022/05/13 09:03:05;;;;;;;5.40;3.97;;;;;;;32.20;27.42;99733.38;5133846;27;20629;-63
2022/05/13 09:05:41;;;;;;;16.03;4.80;;;;;;;32.36;27.16;99745.44;5133616;27;20703;-64
2022/05/13 09:08:09;;;;;;;9.17;4.60;;;;;;;32.56;27.87;99744.66;5134527;27;20265;-64
2022/05/13 09:10:41;;;;;;;8.37;4.57;;;;;;;32.59;26.87;99738.47;5133479;27;20254;-64
2022/05/13 09:13:15;;;;;;;16.10;5.03;;;;;;;32.44;28.48;99732.75;5134418;27;20257;-66
2022/05/13 09:15:48;;;;;;;7.20;4.37;;;;;;;31.79;28.62;99725.00;5133297;27;20544;-66
2022/05/13 09:18:23;;;;;;;8.23;4.27;;;;;;;31.93;28.31;99724.78;5133991;27;20182;-64
2022/05/13 09:20:52;;;;;;;8.03;4.23;;;;;;;30.83;28.71;99704.63;5133984;27;20231;-65
2022/05/13 09:23:21;;;;;;;6.43;4.57;;;;;;;30.94;28.98;99719.66;5132794;27;20255;-67
2022/05/13 09:26:01;;;;;;;4.67;4.23;;;;;;;30.13;29.78;99698.53;5133657;27;20565;-66
2022/05/13 09:28:30;;;;;;;12.17;4.60;;;;;;;30.48;30.41;99704.94;5133488;27;20242;-64
2022/05/13 09:31:07;;;;;;;7.87;4.50;;;;;;;29.96;30.79;99714.94;5133089;27;20325;-64
2022/05/13 09:33:36;;;;;;;4.83;4.37;;;;;;;30.36;31.29;99702.00;5128489;27;20200;-66
2022/05/13 09:36:06;;;;;;;7.83;4.47;;;;;;;30.39;30.59;99693.97;5116868;27;20775;-67
2022/05/13 09:38:43;;;;;;;5.80;5.13;;;;;;;29.61;32.55;99695.97;5131160;27;20683;-66
2022/05/13 09:41:12;;;;;;;8.27;4.47;;;;;;;30.09;32.12;99686.59;5130276;27;20181;-66
2022/05/13 09:43:42;;;;;;;4.47;4.07;;;;;;;30.61;31.09;99685.59;5130612;27;20202;-67
2022/05/13 09:46:11;;;;;;;4.90;4.50;;;;;;;30.96;30.42;99692.72;5133041;27;20246;-65
2022/05/13 09:48:40;;;;;;;6.47;4.20;;;;;;;31.08;29.38;99687.38;5132601;27;20559;-65
2022/05/13 09:51:23;;;;;;;4.90;4.23;;;;;;;31.18;29.81;99678.75;5145862;27;20258;-66
2022/05/13 09:54:08;;;;;;;4.63;4.17;;;;;;;31.32;29.31;99676.66;5131567;27;20190;-65
2022/05/13 09:56:40;;;;;;;94.50;10.77;;;;;;;31.15;29.92;99667.66;5133238;27;20216;-65
2022/05/13 09:59:17;;;;;;;8.30;4.10;;;;;;;30.51;30.62;99660.41;5133964;27;20194;-66
2022/05/13 10:01:44;;;;;;;4.10;3.80;;;;;;;30.70;29.49;99666.41;5132751;27;20654;-67
2022/05/13 10:04:12;;;;;;;8.33;4.03;;;;;;;30.91;29.59;99662.66;5132986;27;20238;-66
2022/05/13 10:06:41;;;;;;;9.60;4.27;;;;;;;30.95;29.82;99657.34;5132423;27;20715;-66
2022/05/13 10:15:14;;;;;;;3.90;3.60;;;;;;;31.38;28.93;99642.41;5069563;28;20270;-66
2022/05/13 10:17:47;;;;;;;3.97;3.17;;;;;;;31.56;27.55;99637.66;5119033;27;20279;-66
2022/05/13 10:20:26;;;;;;;4.23;3.90;;;;;;;31.82;27.37;99633.66;5133395;27;20264;-64
2022/05/13 10:22:58;;;;;;;3.97;3.60;;;;;;;31.88;28.23;99623.25;5132693;27;20190;-65
2022/05/13 10:25:30;;;;;;;5.50;3.80;;;;;;;31.92;28.35;99627.78;5132633;27;20186;-65
2022/05/13 10:28:02;;;;;;;10.17;3.83;;;;;;;32.06;27.63;99620.06;5131747;27;20262;-66
2022/05/13 10:30:35;;;;;;;5.10;3.53;;;;;;;32.20;27.70;99606.06;5133149;27;20627;-65
2022/05/13 10:33:06;;;;;;;4.37;3.70;;;;;;;32.08;26.98;99617.81;5132527;27;20182;-66
2022/05/13 10:35:39;;;;;;;8.10;3.33;;;;;;;31.90;26.86;99610.81;5112940;28;20248;-66
2022/05/13 10:38:12;;;;;;;5.40;3.20;;;;;;;31.94;26.81;99603.53;5112121;28;20256;-66
2022/05/13 10:40:44;;;;;;;5.40;3.30;;;;;;;32.01;27.83;99598.28;5121007;28;20235;-66
2022/05/13 10:43:16;;;;;;;4.70;3.27;;;;;;;31.54;28.00;99595.97;5132306;27;20306;-66
2022/05/13 10:45:44;;;;;;;10.27;4.10;;;;;;;31.73;27.48;99593.59;5132454;27;20187;-66
2022/05/13 10:48:22;;;;;;;13.10;3.97;;;;;;;31.83;27.66;99594.06;5132117;27;20364;-65
2022/05/13 10:51:03;;;;;;;4.93;3.03;;;;;;;31.90;26.57;99599.84;5142196;27;20204;-65
2022/05/13 10:53:38;;;;;;;3.60;3.10;;;;;;;31.78;27.87;99583.25;5153411;27;20185;-65
2022/05/13 10:56:16;;;;;;;3.73;3.10;;;;;;;31.41;28.26;99578.59;5147745;27;20189;-66
2022/05/13 10:58:54;;;;;;;2.80;2.60;;;;;;;31.37;27.88;99574.06;5111321;28;20186;-66
2022/05/13 11:01:40;;;;;;;4.87;3.23;;;;;;;31.69;27.50;99578.91;5112459;28;20240;-66
2022/05/13 11:04:16;;;;;;;5.37;3.13;;;;;;;31.84;27.08;99567.34;5117848;28;20189;-67
2022/05/13 11:07:03;;;;;;;4.00;2.93;;;;;;;31.83;26.65;99571.25;5120637;27;20269;-66
2022/05/13 11:09:40;;;;;;;3.60;3.30;;;;;;;31.83;26.98;99563.00;5116524;28;20183;-65
2022/05/13 11:12:15;;;;;;;6.53;3.60;;;;;;;31.28;27.95;99560.38;5115310;28;20178;-65
2022/05/13 11:14:52;;;;;;;9.00;3.53;;;;;;;31.45;27.22;99562.25;5116552;28;20540;-65
2022/05/13 11:17:30;;;;;;;3.40;3.10;;;;;;;31.66;26.57;99550.16;5115424;28;20207;-65
2022/05/13 11:20:06;;;;;;;5.17;2.90;;;;;;;31.82;27.14;99544.91;5115033;28;20283;-65
2022/05/13 11:22:38;;;;;;;4.07;3.20;;;;;;;31.78;27.46;99547.53;5115727;28;20186;-65
2022/05/13 11:28:26;;;;;;;5.90;3.70;;;;;;;31.48;27.07;99548.66;5114942;28;20319;-65
2022/05/13 11:31:02;;;;;;;3.53;2.80;;;;;;;31.71;26.72;99541.72;5115906;28;20266;-65
2022/05/13 11:33:37;;;;;;;3.73;3.37;;;;;;;31.90;26.94;99533.06;5115130;27;20192;-65
2022/05/13 11:36:28;;;;;;;4.40;3.17;;;;;;;31.78;26.82;99536.53;5115128;28;20183;-66
2022/05/13 11:39:17;;;;;;;6.73;3.30;;;;;;;31.67;27.14;99526.22;5115090;27;20182;-65
2022/05/13 11:41:52;;;;;;;3.63;2.90;;;;;;;31.14;27.18;99526.84;5132400;27;20182;-65
2022/05/13 11:44:29;;;;;;;7.67;4.13;;;;;;;31.10;28.10;99519.56;5135779;27;20609;-64
2022/05/13 11:47:01;;;;;;;2.97;2.77;;;;;;;31.28;26.84;99521.16;5136015;27;20189;-65
2022/05/13 11:49:30;;;;;;;3.40;2.97;;;;;;;31.28;27.28;99507.41;5135604;27;20636;-65
2022/05/13 11:51:58;;;;;;;9.17;3.47;;;;;;;31.14;27.64;99515.03;5134886;27;20584;-65
2022/05/13 11:54:28;;;;;;;3.67;3.30;;;;;;;31.30;27.15;99505.13;5135270;27;20189;-67
2022/05/13 11:57:21;;;;;;;2.80;2.70;;;;;;;31.24;27.38;99504.50;5134925;27;20206;-64
2022/05/13 11:59:51;;;;;;;3.90;3.03;;;;;;;31.13;26.45;99503.28;5127558;27;20190;-63
2022/05/13 12:02:51;;;;;;;4.87;3.20;;;;;;;31.22;25.98;99492.22;5135747;27;20197;-64
2022/05/13 12:05:33;;;;;;;4.30;3.00;;;;;;;31.30;25.71;99486.72;5134904;27;20558;-64
2022/05/13 12:08:14;;;;;;;3.60;2.77;;;;;;;31.03;26.25;99487.16;5134732;27;20186;-64
2022/05/13 12:10:49;;;;;;;7.10;3.03;;;;;;;30.92;26.54;99474.97;5135663;27;20266;-65
2022/05/13 12:13:30;;;;;;;4.47;3.13;;;;;;;30.85;27.36;99465.59;5135311;27;20181;-65
2022/05/13 12:16:11;;;;;;;3.30;3.00;;;;;;;30.91;26.97;99467.06;5135503;27;20182;-66
2022/05/13 12:18:48;;;;;;;3.27;3.00;;;;;;;30.94;25.83;99461.69;5134535;27;20264;-65